sensor_id;sensor_type;location;lat;lon;timestamp;P1;durP1;ratioP1;P2;durP2;ratioP2
84246;SDS011;74385;53.360;6.290;2024-02-14T00:00:30;6.30;;;4.15;;
84246;SDS011;74385;53.360;6.290;2024-02-14T00:02:56;6.15;;;4.00;;
84246;SDS011;74385;53.360;6.290;2024-02-14T00:05:22;7.93;;;4.28;;
84246;SDS011;74385;53.360;6.290;2024-02-14T00:07:48;8.55;;;4.50;;
84246;SDS011;74385;53.360;6.290;2024-02-14T00:10:14;9.27;;;5.10;;
84246;SDS011;74385;53.360;6.290;2024-02-14T00:12:40;11.93;;;3.42;;
84246;SDS011;74385;53.360;6.290;2024-02-14T00:15:06;8.68;;;4.78;;
84246;SDS011;74385;53.360;6.290;2024-02-14T00:17:33;8.38;;;4.93;;
84246;SDS011;74385;53.360;6.290;2024-02-14T00:20:00;9.27;;;5.25;;
84246;SDS011;74385;53.360;6.290;2024-02-14T00:22:26;8.00;;;3.33;;
84246;SDS011;74385;53.360;6.290;2024-02-14T00:24:52;5.25;;;4.45;;
84246;SDS011;74385;53.360;6.290;2024-02-14T00:27:18;9.90;;;4.90;;
84246;SDS011;74385;53.360;6.290;2024-02-14T00:29:44;10.55;;;5.18;;
84246;SDS011;74385;53.360;6.290;2024-02-14T00:32:14;8.30;;;5.20;;
84246;SDS011;74385;53.360;6.290;2024-02-14T00:34:40;10.82;;;5.57;;
84246;SDS011;74385;53.360;6.290;2024-02-14T00:37:07;7.05;;;4.63;;
84246;SDS011;74385;53.360;6.290;2024-02-14T00:39:33;9.93;;;4.38;;
84246;SDS011;74385;53.360;6.290;2024-02-14T00:41:59;10.88;;;5.50;;
84246;SDS011;74385;53.360;6.290;2024-02-14T00:44:25;8.57;;;4.75;;
84246;SDS011;74385;53.360;6.290;2024-02-14T00:46:57;8.63;;;5.28;;
84246;SDS011;74385;53.360;6.290;2024-02-14T00:49:27;5.45;;;3.90;;
84246;SDS011;74385;53.360;6.290;2024-02-14T00:51:53;7.50;;;4.18;;
84246;SDS011;74385;53.360;6.290;2024-02-14T00:54:20;9.15;;;5.47;;
84246;SDS011;74385;53.360;6.290;2024-02-14T00:56:46;6.18;;;3.97;;
84246;SDS011;74385;53.360;6.290;2024-02-14T00:59:13;7.65;;;5.45;;
84246;SDS011;74385;53.360;6.290;2024-02-14T01:01:39;8.43;;;5.18;;
84246;SDS011;74385;53.360;6.290;2024-02-14T01:04:05;7.63;;;5.57;;
84246;SDS011;74385;53.360;6.290;2024-02-14T01:06:32;8.57;;;5.05;;
84246;SDS011;74385;53.360;6.290;2024-02-14T01:08:58;7.65;;;5.68;;
84246;SDS011;74385;53.360;6.290;2024-02-14T01:11:24;5.65;;;4.22;;
84246;SDS011;74385;53.360;6.290;2024-02-14T01:13:50;6.75;;;4.18;;
84246;SDS011;74385;53.360;6.290;2024-02-14T01:16:16;8.35;;;5.00;;
84246;SDS011;74385;53.360;6.290;2024-02-14T01:18:43;7.32;;;4.93;;
84246;SDS011;74385;53.360;6.290;2024-02-14T01:21:09;5.78;;;4.03;;
84246;SDS011;74385;53.360;6.290;2024-02-14T01:23:35;5.88;;;4.80;;
84246;SDS011;74385;53.360;6.290;2024-02-14T01:26:01;9.93;;;5.07;;
84246;SDS011;74385;53.360;6.290;2024-02-14T01:28:27;7.85;;;5.03;;
84246;SDS011;74385;53.360;6.290;2024-02-14T01:30:53;10.82;;;5.53;;
84246;SDS011;74385;53.360;6.290;2024-02-14T01:33:22;6.45;;;5.13;;
84246;SDS011;74385;53.360;6.290;2024-02-14T01:35:48;5.75;;;4.35;;
84246;SDS011;74385;53.360;6.290;2024-02-14T01:38:14;7.72;;;4.15;;
84246;SDS011;74385;53.360;6.290;2024-02-14T01:40:43;4.68;;;4.13;;
84246;SDS011;74385;53.360;6.290;2024-02-14T01:43:11;8.13;;;4.63;;
84246;SDS011;74385;53.360;6.290;2024-02-14T01:45:39;7.13;;;4.65;;
84246;SDS011;74385;53.360;6.290;2024-02-14T01:48:06;5.40;;;4.32;;
84246;SDS011;74385;53.360;6.290;2024-02-14T01:50:32;4.95;;;4.05;;
84246;SDS011;74385;53.360;6.290;2024-02-14T01:52:59;4.60;;;3.75;;
84246;SDS011;74385;53.360;6.290;2024-02-14T01:55:26;5.78;;;4.55;;
84246;SDS011;74385;53.360;6.290;2024-02-14T01:57:53;4.57;;;3.80;;
84246;SDS011;74385;53.360;6.290;2024-02-14T02:00:19;4.63;;;3.25;;
84246;SDS011;74385;53.360;6.290;2024-02-14T02:02:46;4.75;;;4.22;;
84246;SDS011;74385;53.360;6.290;2024-02-14T02:05:12;4.07;;;3.55;;
84246;SDS011;74385;53.360;6.290;2024-02-14T02:07:38;3.50;;;2.28;;
84246;SDS011;74385;53.360;6.290;2024-02-14T02:10:08;4.82;;;3.95;;
84246;SDS011;74385;53.360;6.290;2024-02-14T02:12:35;3.38;;;2.40;;
84246;SDS011;74385;53.360;6.290;2024-02-14T02:15:04;3.85;;;3.30;;
84246;SDS011;74385;53.360;6.290;2024-02-14T02:17:32;4.50;;;3.70;;
84246;SDS011;74385;53.360;6.290;2024-02-14T02:20:02;4.50;;;3.58;;
84246;SDS011;74385;53.360;6.290;2024-02-14T02:22:30;4.85;;;3.42;;
84246;SDS011;74385;53.360;6.290;2024-02-14T02:25:03;4.72;;;3.80;;
84246;SDS011;74385;53.360;6.290;2024-02-14T02:27:35;4.70;;;3.75;;
84246;SDS011;74385;53.360;6.290;2024-02-14T02:30:03;4.85;;;3.88;;
84246;SDS011;74385;53.360;6.290;2024-02-14T02:32:29;3.42;;;3.03;;
84246;SDS011;74385;53.360;6.290;2024-02-14T02:34:55;4.00;;;3.42;;
84246;SDS011;74385;53.360;6.290;2024-02-14T02:37:23;4.05;;;3.28;;
84246;SDS011;74385;53.360;6.290;2024-02-14T02:39:49;4.40;;;3.25;;
84246;SDS011;74385;53.360;6.290;2024-02-14T02:42:16;4.18;;;3.75;;
84246;SDS011;74385;53.360;6.290;2024-02-14T02:44:46;3.80;;;3.42;;
84246;SDS011;74385;53.360;6.290;2024-02-14T02:47:13;3.65;;;3.28;;
84246;SDS011;74385;53.360;6.290;2024-02-14T02:49:42;4.53;;;3.30;;
84246;SDS011;74385;53.360;6.290;2024-02-14T02:52:09;5.05;;;3.90;;
84246;SDS011;74385;53.360;6.290;2024-02-14T02:54:36;3.65;;;3.05;;
84246;SDS011;74385;53.360;6.290;2024-02-14T02:57:06;3.50;;;3.20;;
84246;SDS011;74385;53.360;6.290;2024-02-14T02:59:34;3.75;;;2.97;;
84246;SDS011;74385;53.360;6.290;2024-02-14T03:02:00;5.40;;;3.67;;
84246;SDS011;74385;53.360;6.290;2024-02-14T03:04:27;5.15;;;3.42;;
84246;SDS011;74385;53.360;6.290;2024-02-14T03:06:54;3.60;;;3.00;;
84246;SDS011;74385;53.360;6.290;2024-02-14T03:09:21;3.30;;;2.85;;
84246;SDS011;74385;53.360;6.290;2024-02-14T03:11:48;3.50;;;3.03;;
84246;SDS011;74385;53.360;6.290;2024-02-14T03:14:14;3.20;;;2.85;;
84246;SDS011;74385;53.360;6.290;2024-02-14T03:16:41;4.43;;;2.47;;
84246;SDS011;74385;53.360;6.290;2024-02-14T03:19:07;2.92;;;2.17;;
84246;SDS011;74385;53.360;6.290;2024-02-14T03:21:33;5.72;;;3.03;;
84246;SDS011;74385;53.360;6.290;2024-02-14T03:24:01;3.80;;;2.92;;
84246;SDS011;74385;53.360;6.290;2024-02-14T03:26:30;3.85;;;3.47;;
84246;SDS011;74385;53.360;6.290;2024-02-14T03:28:58;3.08;;;2.22;;
84246;SDS011;74385;53.360;6.290;2024-02-14T03:31:24;3.28;;;2.78;;
84246;SDS011;74385;53.360;6.290;2024-02-14T03:33:51;4.07;;;3.10;;
84246;SDS011;74385;53.360;6.290;2024-02-14T03:36:18;4.28;;;2.92;;
84246;SDS011;74385;53.360;6.290;2024-02-14T03:38:44;2.50;;;2.05;;
84246;SDS011;74385;53.360;6.290;2024-02-14T03:41:11;3.92;;;3.25;;
84246;SDS011;74385;53.360;6.290;2024-02-14T03:43:40;4.28;;;2.95;;
84246;SDS011;74385;53.360;6.290;2024-02-14T03:46:06;5.00;;;3.50;;
84246;SDS011;74385;53.360;6.290;2024-02-14T03:48:33;4.40;;;4.00;;
84246;SDS011;74385;53.360;6.290;2024-02-14T03:51:00;5.40;;;4.07;;
84246;SDS011;74385;53.360;6.290;2024-02-14T03:53:26;5.53;;;3.75;;
84246;SDS011;74385;53.360;6.290;2024-02-14T03:55:52;4.57;;;3.55;;
84246;SDS011;74385;53.360;6.290;2024-02-14T03:58:18;4.93;;;3.50;;
84246;SDS011;74385;53.360;6.290;2024-02-14T04:00:49;5.05;;;3.78;;
84246;SDS011;74385;53.360;6.290;2024-02-14T04:03:15;2.83;;;2.50;;
84246;SDS011;74385;53.360;6.290;2024-02-14T04:05:41;5.20;;;3.58;;
84246;SDS011;74385;53.360;6.290;2024-02-14T04:08:08;4.47;;;3.60;;
84246;SDS011;74385;53.360;6.290;2024-02-14T04:10:38;3.92;;;3.05;;
84246;SDS011;74385;53.360;6.290;2024-02-14T04:13:05;4.78;;;2.92;;
84246;SDS011;74385;53.360;6.290;2024-02-14T04:15:31;4.68;;;3.30;;
84246;SDS011;74385;53.360;6.290;2024-02-14T04:17:57;3.85;;;3.17;;
84246;SDS011;74385;53.360;6.290;2024-02-14T04:20:24;2.90;;;2.30;;
84246;SDS011;74385;53.360;6.290;2024-02-14T04:22:50;4.45;;;2.60;;
84246;SDS011;74385;53.360;6.290;2024-02-14T04:25:17;3.78;;;2.47;;
84246;SDS011;74385;53.360;6.290;2024-02-14T04:27:43;4.35;;;2.83;;
84246;SDS011;74385;53.360;6.290;2024-02-14T04:30:10;4.75;;;2.65;;
84246;SDS011;74385;53.360;6.290;2024-02-14T04:32:36;4.07;;;2.67;;
84246;SDS011;74385;53.360;6.290;2024-02-14T04:35:02;3.33;;;2.78;;
84246;SDS011;74385;53.360;6.290;2024-02-14T04:37:28;4.60;;;2.78;;
84246;SDS011;74385;53.360;6.290;2024-02-14T04:39:55;3.47;;;2.17;;
84246;SDS011;74385;53.360;6.290;2024-02-14T04:42:21;3.80;;;2.30;;
84246;SDS011;74385;53.360;6.290;2024-02-14T04:44:47;4.65;;;2.20;;
84246;SDS011;74385;53.360;6.290;2024-02-14T04:47:14;2.83;;;2.47;;
84246;SDS011;74385;53.360;6.290;2024-02-14T04:49:40;3.00;;;2.10;;
84246;SDS011;74385;53.360;6.290;2024-02-14T04:52:06;3.63;;;2.42;;
84246;SDS011;74385;53.360;6.290;2024-02-14T04:54:32;3.40;;;2.13;;
84246;SDS011;74385;53.360;6.290;2024-02-14T04:56:59;3.03;;;2.22;;
84246;SDS011;74385;53.360;6.290;2024-02-14T04:59:25;4.03;;;2.33;;
84246;SDS011;74385;53.360;6.290;2024-02-14T05:01:51;2.70;;;1.50;;
84246;SDS011;74385;53.360;6.290;2024-02-14T05:04:18;5.35;;;2.75;;
84246;SDS011;74385;53.360;6.290;2024-02-14T05:06:45;7.20;;;2.03;;
84246;SDS011;74385;53.360;6.290;2024-02-14T05:09:11;4.57;;;1.90;;
84246;SDS011;74385;53.360;6.290;2024-02-14T05:11:39;2.42;;;1.70;;
84246;SDS011;74385;53.360;6.290;2024-02-14T05:14:06;4.18;;;1.60;;
84246;SDS011;74385;53.360;6.290;2024-02-14T05:16:32;4.18;;;2.08;;
84246;SDS011;74385;53.360;6.290;2024-02-14T05:18:58;3.22;;;1.20;;
84246;SDS011;74385;53.360;6.290;2024-02-14T05:21:26;3.70;;;2.08;;
84246;SDS011;74385;53.360;6.290;2024-02-14T05:23:52;3.63;;;2.15;;
84246;SDS011;74385;53.360;6.290;2024-02-14T05:26:18;4.55;;;2.15;;
84246;SDS011;74385;53.360;6.290;2024-02-14T05:28:44;5.55;;;2.63;;
84246;SDS011;74385;53.360;6.290;2024-02-14T05:31:11;6.38;;;2.30;;
84246;SDS011;74385;53.360;6.290;2024-02-14T05:33:37;5.60;;;2.75;;
84246;SDS011;74385;53.360;6.290;2024-02-14T05:36:03;5.07;;;1.85;;
84246;SDS011;74385;53.360;6.290;2024-02-14T05:38:30;6.68;;;2.42;;
84246;SDS011;74385;53.360;6.290;2024-02-14T05:40:58;3.10;;;2.17;;
84246;SDS011;74385;53.360;6.290;2024-02-14T05:43:26;4.57;;;2.40;;
84246;SDS011;74385;53.360;6.290;2024-02-14T05:45:52;3.53;;;1.65;;
84246;SDS011;74385;53.360;6.290;2024-02-14T05:48:19;6.55;;;3.05;;
84246;SDS011;74385;53.360;6.290;2024-02-14T05:50:45;5.35;;;1.88;;
84246;SDS011;74385;53.360;6.290;2024-02-14T05:53:11;3.50;;;1.98;;
84246;SDS011;74385;53.360;6.290;2024-02-14T05:55:37;2.15;;;1.70;;
84246;SDS011;74385;53.360;6.290;2024-02-14T05:58:04;1.90;;;1.20;;
84246;SDS011;74385;53.360;6.290;2024-02-14T06:00:30;3.63;;;1.75;;
84246;SDS011;74385;53.360;6.290;2024-02-14T06:02:56;1.15;;;0.60;;
84246;SDS011;74385;53.360;6.290;2024-02-14T06:05:22;4.93;;;1.60;;
84246;SDS011;74385;53.360;6.290;2024-02-14T06:07:49;2.63;;;1.40;;
84246;SDS011;74385;53.360;6.290;2024-02-14T06:10:15;3.00;;;1.77;;
84246;SDS011;74385;53.360;6.290;2024-02-14T06:12:42;1.13;;;0.80;;
84246;SDS011;74385;53.360;6.290;2024-02-14T06:15:10;0.90;;;0.70;;
84246;SDS011;74385;53.360;6.290;2024-02-14T06:17:36;1.17;;;0.80;;
84246;SDS011;74385;53.360;6.290;2024-02-14T06:20:02;3.20;;;0.95;;
84246;SDS011;74385;53.360;6.290;2024-02-14T06:22:32;5.85;;;1.05;;
84246;SDS011;74385;53.360;6.290;2024-02-14T06:24:59;1.17;;;0.90;;
84246;SDS011;74385;53.360;6.290;2024-02-14T06:27:25;2.22;;;1.23;;
84246;SDS011;74385;53.360;6.290;2024-02-14T06:29:51;3.65;;;0.95;;
84246;SDS011;74385;53.360;6.290;2024-02-14T06:32:18;3.13;;;0.82;;
84246;SDS011;74385;53.360;6.290;2024-02-14T06:34:44;1.95;;;1.35;;
84246;SDS011;74385;53.360;6.290;2024-02-14T06:37:10;5.28;;;1.75;;
84246;SDS011;74385;53.360;6.290;2024-02-14T06:39:36;5.85;;;1.70;;
84246;SDS011;74385;53.360;6.290;2024-02-14T06:42:02;7.95;;;2.33;;
84246;SDS011;74385;53.360;6.290;2024-02-14T06:44:28;5.78;;;1.85;;
84246;SDS011;74385;53.360;6.290;2024-02-14T06:46:54;5.38;;;1.73;;
84246;SDS011;74385;53.360;6.290;2024-02-14T06:49:21;18.35;;;3.92;;
84246;SDS011;74385;53.360;6.290;2024-02-14T06:51:47;10.60;;;2.88;;
84246;SDS011;74385;53.360;6.290;2024-02-14T06:54:13;13.73;;;3.78;;
84246;SDS011;74385;53.360;6.290;2024-02-14T06:56:39;14.52;;;3.20;;
84246;SDS011;74385;53.360;6.290;2024-02-14T06:59:05;5.82;;;2.30;;
84246;SDS011;74385;53.360;6.290;2024-02-14T07:01:31;6.03;;;1.98;;
84246;SDS011;74385;53.360;6.290;2024-02-14T07:03:58;7.72;;;2.65;;
84246;SDS011;74385;53.360;6.290;2024-02-14T07:06:24;12.95;;;2.60;;
84246;SDS011;74385;53.360;6.290;2024-02-14T07:08:50;8.70;;;1.70;;
84246;SDS011;74385;53.360;6.290;2024-02-14T07:11:16;7.35;;;1.67;;
84246;SDS011;74385;53.360;6.290;2024-02-14T07:13:43;12.27;;;1.85;;
84246;SDS011;74385;53.360;6.290;2024-02-14T07:16:10;13.65;;;3.38;;
84246;SDS011;74385;53.360;6.290;2024-02-14T07:18:36;19.38;;;2.80;;
84246;SDS011;74385;53.360;6.290;2024-02-14T07:21:02;16.02;;;3.67;;
84246;SDS011;74385;53.360;6.290;2024-02-14T07:23:30;13.52;;;3.78;;
84246;SDS011;74385;53.360;6.290;2024-02-14T07:25:57;21.63;;;4.35;;
84246;SDS011;74385;53.360;6.290;2024-02-14T07:28:23;22.30;;;4.75;;
84246;SDS011;74385;53.360;6.290;2024-02-14T07:30:49;11.63;;;3.63;;
84246;SDS011;74385;53.360;6.290;2024-02-14T07:33:15;10.60;;;2.15;;
84246;SDS011;74385;53.360;6.290;2024-02-14T07:35:41;15.75;;;3.10;;
84246;SDS011;74385;53.360;6.290;2024-02-14T07:38:08;18.98;;;4.22;;
84246;SDS011;74385;53.360;6.290;2024-02-14T07:40:34;8.20;;;3.22;;
84246;SDS011;74385;53.360;6.290;2024-02-14T07:43:00;14.80;;;4.00;;
84246;SDS011;74385;53.360;6.290;2024-02-14T07:45:27;19.95;;;3.38;;
84246;SDS011;74385;53.360;6.290;2024-02-14T07:47:54;12.18;;;3.17;;
84246;SDS011;74385;53.360;6.290;2024-02-14T07:50:20;12.23;;;3.08;;
84246;SDS011;74385;53.360;6.290;2024-02-14T07:52:47;8.23;;;2.70;;
84246;SDS011;74385;53.360;6.290;2024-02-14T07:55:13;18.95;;;4.25;;
84246;SDS011;74385;53.360;6.290;2024-02-14T07:57:41;11.15;;;2.90;;
84246;SDS011;74385;53.360;6.290;2024-02-14T08:00:08;16.92;;;3.83;;
84246;SDS011;74385;53.360;6.290;2024-02-14T08:02:35;11.57;;;2.97;;
84246;SDS011;74385;53.360;6.290;2024-02-14T08:05:02;20.05;;;3.63;;
84246;SDS011;74385;53.360;6.290;2024-02-14T08:07:29;17.00;;;4.50;;
84246;SDS011;74385;53.360;6.290;2024-02-14T08:09:56;10.15;;;3.38;;
84246;SDS011;74385;53.360;6.290;2024-02-14T08:12:22;12.85;;;3.10;;
84246;SDS011;74385;53.360;6.290;2024-02-14T08:14:49;14.10;;;2.78;;
84246;SDS011;74385;53.360;6.290;2024-02-14T08:17:16;14.38;;;3.03;;
84246;SDS011;74385;53.360;6.290;2024-02-14T08:19:42;17.50;;;3.15;;
84246;SDS011;74385;53.360;6.290;2024-02-14T08:22:08;19.98;;;4.03;;
84246;SDS011;74385;53.360;6.290;2024-02-14T08:24:34;16.70;;;3.70;;
84246;SDS011;74385;53.360;6.290;2024-02-14T08:27:00;20.17;;;3.70;;
84246;SDS011;74385;53.360;6.290;2024-02-14T08:29:26;28.77;;;4.03;;
84246;SDS011;74385;53.360;6.290;2024-02-14T08:31:52;14.63;;;3.13;;
84246;SDS011;74385;53.360;6.290;2024-02-14T08:34:18;23.15;;;3.90;;
84246;SDS011;74385;53.360;6.290;2024-02-14T08:36:45;14.55;;;2.67;;
84246;SDS011;74385;53.360;6.290;2024-02-14T08:39:11;13.75;;;2.92;;
84246;SDS011;74385;53.360;6.290;2024-02-14T08:41:37;14.82;;;3.75;;
84246;SDS011;74385;53.360;6.290;2024-02-14T08:44:05;21.83;;;3.50;;
84246;SDS011;74385;53.360;6.290;2024-02-14T08:46:31;13.07;;;3.58;;
84246;SDS011;74385;53.360;6.290;2024-02-14T08:48:58;12.25;;;2.50;;
84246;SDS011;74385;53.360;6.290;2024-02-14T08:51:24;12.15;;;3.05;;
84246;SDS011;74385;53.360;6.290;2024-02-14T08:53:50;14.90;;;3.40;;
84246;SDS011;74385;53.360;6.290;2024-02-14T08:56:20;12.15;;;3.45;;
84246;SDS011;74385;53.360;6.290;2024-02-14T08:58:47;8.55;;;3.15;;
84246;SDS011;74385;53.360;6.290;2024-02-14T09:01:13;17.02;;;4.65;;
84246;SDS011;74385;53.360;6.290;2024-02-14T09:03:40;14.20;;;3.55;;
84246;SDS011;74385;53.360;6.290;2024-02-14T09:06:09;12.63;;;3.05;;
84246;SDS011;74385;53.360;6.290;2024-02-14T09:08:35;19.42;;;3.60;;
84246;SDS011;74385;53.360;6.290;2024-02-14T09:11:01;11.52;;;3.67;;
84246;SDS011;74385;53.360;6.290;2024-02-14T09:13:27;12.52;;;3.15;;
84246;SDS011;74385;53.360;6.290;2024-02-14T09:15:53;16.35;;;3.22;;
84246;SDS011;74385;53.360;6.290;2024-02-14T09:18:19;13.98;;;3.67;;
84246;SDS011;74385;53.360;6.290;2024-02-14T09:20:45;9.38;;;3.75;;
84246;SDS011;74385;53.360;6.290;2024-02-14T09:23:12;10.30;;;3.80;;
84246;SDS011;74385;53.360;6.290;2024-02-14T09:25:45;11.02;;;3.00;;
84246;SDS011;74385;53.360;6.290;2024-02-14T09:28:18;13.68;;;3.47;;
84246;SDS011;74385;53.360;6.290;2024-02-14T09:30:44;18.60;;;4.78;;
84246;SDS011;74385;53.360;6.290;2024-02-14T09:33:10;9.20;;;3.45;;
84246;SDS011;74385;53.360;6.290;2024-02-14T09:35:37;15.02;;;4.15;;
84246;SDS011;74385;53.360;6.290;2024-02-14T09:38:09;10.52;;;3.72;;
84246;SDS011;74385;53.360;6.290;2024-02-14T09:40:36;13.88;;;4.10;;
84246;SDS011;74385;53.360;6.290;2024-02-14T09:43:03;15.57;;;4.35;;
84246;SDS011;74385;53.360;6.290;2024-02-14T09:45:31;18.38;;;4.25;;
84246;SDS011;74385;53.360;6.290;2024-02-14T09:47:58;16.33;;;5.72;;
84246;SDS011;74385;53.360;6.290;2024-02-14T09:50:24;18.95;;;5.82;;
84246;SDS011;74385;53.360;6.290;2024-02-14T09:52:52;13.45;;;4.43;;
84246;SDS011;74385;53.360;6.290;2024-02-14T09:55:19;18.15;;;3.80;;
84246;SDS011;74385;53.360;6.290;2024-02-14T09:57:45;16.05;;;4.10;;
84246;SDS011;74385;53.360;6.290;2024-02-14T10:00:12;16.02;;;4.07;;
84246;SDS011;74385;53.360;6.290;2024-02-14T10:02:41;16.60;;;5.07;;
84246;SDS011;74385;53.360;6.290;2024-02-14T10:05:08;13.73;;;4.20;;
84246;SDS011;74385;53.360;6.290;2024-02-14T10:07:43;14.40;;;4.75;;
84246;SDS011;74385;53.360;6.290;2024-02-14T10:10:11;11.63;;;4.20;;
84246;SDS011;74385;53.360;6.290;2024-02-14T10:12:37;16.20;;;5.28;;
84246;SDS011;74385;53.360;6.290;2024-02-14T10:15:05;14.27;;;3.65;;
84246;SDS011;74385;53.360;6.290;2024-02-14T10:17:34;16.42;;;4.43;;
84246;SDS011;74385;53.360;6.290;2024-02-14T10:20:01;11.02;;;3.47;;
84246;SDS011;74385;53.360;6.290;2024-02-14T10:22:37;14.18;;;4.97;;
84246;SDS011;74385;53.360;6.290;2024-02-14T10:25:03;15.57;;;4.30;;
84246;SDS011;74385;53.360;6.290;2024-02-14T10:27:35;16.30;;;5.30;;
84246;SDS011;74385;53.360;6.290;2024-02-14T10:30:03;15.32;;;5.00;;
84246;SDS011;74385;53.360;6.290;2024-02-14T10:32:29;11.55;;;3.80;;
84246;SDS011;74385;53.360;6.290;2024-02-14T10:34:56;11.07;;;3.08;;
84246;SDS011;74385;53.360;6.290;2024-02-14T10:37:23;8.55;;;3.05;;
84246;SDS011;74385;53.360;6.290;2024-02-14T10:39:50;12.35;;;4.20;;
84246;SDS011;74385;53.360;6.290;2024-02-14T10:42:17;6.70;;;2.08;;
84246;SDS011;74385;53.360;6.290;2024-02-14T10:44:44;5.60;;;2.88;;
84246;SDS011;74385;53.360;6.290;2024-02-14T10:47:14;8.27;;;2.67;;
84246;SDS011;74385;53.360;6.290;2024-02-14T10:49:48;6.13;;;2.60;;
84246;SDS011;74385;53.360;6.290;2024-02-14T10:52:14;7.65;;;3.05;;
84246;SDS011;74385;53.360;6.290;2024-02-14T10:54:41;5.82;;;2.00;;
84246;SDS011;74385;53.360;6.290;2024-02-14T10:57:08;6.28;;;2.28;;
84246;SDS011;74385;53.360;6.290;2024-02-14T10:59:41;3.33;;;1.63;;
84246;SDS011;74385;53.360;6.290;2024-02-14T11:02:10;7.57;;;2.33;;
84246;SDS011;74385;53.360;6.290;2024-02-14T11:04:36;5.28;;;2.70;;
84246;SDS011;74385;53.360;6.290;2024-02-14T11:07:03;6.68;;;2.13;;
84246;SDS011;74385;53.360;6.290;2024-02-14T11:09:37;4.10;;;2.42;;
84246;SDS011;74385;53.360;6.290;2024-02-14T11:12:07;6.28;;;3.00;;
84246;SDS011;74385;53.360;6.290;2024-02-14T11:14:36;10.88;;;2.55;;
84246;SDS011;74385;53.360;6.290;2024-02-14T11:17:04;7.50;;;3.85;;
84246;SDS011;74385;53.360;6.290;2024-02-14T11:19:34;8.82;;;2.80;;
84246;SDS011;74385;53.360;6.290;2024-02-14T11:22:11;6.15;;;2.97;;
84246;SDS011;74385;53.360;6.290;2024-02-14T11:24:38;6.30;;;2.70;;
84246;SDS011;74385;53.360;6.290;2024-02-14T11:27:08;6.72;;;3.67;;
84246;SDS011;74385;53.360;6.290;2024-02-14T11:29:35;11.30;;;3.95;;
84246;SDS011;74385;53.360;6.290;2024-02-14T11:32:01;6.28;;;3.63;;
84246;SDS011;74385;53.360;6.290;2024-02-14T11:34:28;6.57;;;3.78;;
84246;SDS011;74385;53.360;6.290;2024-02-14T11:36:58;10.35;;;4.13;;
84246;SDS011;74385;53.360;6.290;2024-02-14T11:39:25;8.10;;;4.47;;
84246;SDS011;74385;53.360;6.290;2024-02-14T11:41:51;13.35;;;5.03;;
84246;SDS011;74385;53.360;6.290;2024-02-14T11:44:18;7.70;;;4.45;;
84246;SDS011;74385;53.360;6.290;2024-02-14T11:46:47;7.43;;;3.83;;
84246;SDS011;74385;53.360;6.290;2024-02-14T11:49:13;8.02;;;4.00;;
84246;SDS011;74385;53.360;6.290;2024-02-14T11:51:39;6.57;;;3.95;;
84246;SDS011;74385;53.360;6.290;2024-02-14T11:54:06;8.75;;;4.40;;
84246;SDS011;74385;53.360;6.290;2024-02-14T11:56:36;5.95;;;3.53;;
84246;SDS011;74385;53.360;6.290;2024-02-14T11:59:03;7.13;;;3.90;;
84246;SDS011;74385;53.360;6.290;2024-02-14T12:01:30;12.07;;;3.70;;
84246;SDS011;74385;53.360;6.290;2024-02-14T12:04:05;5.15;;;3.25;;
84246;SDS011;74385;53.360;6.290;2024-02-14T12:06:34;2.65;;;2.45;;
84246;SDS011;74385;53.360;6.290;2024-02-14T12:09:03;8.30;;;4.75;;
84246;SDS011;74385;53.360;6.290;2024-02-14T12:11:33;4.60;;;3.03;;
84246;SDS011;74385;53.360;6.290;2024-02-14T12:14:07;5.43;;;2.50;;
84246;SDS011;74385;53.360;6.290;2024-02-14T12:16:35;6.07;;;2.30;;
84246;SDS011;74385;53.360;6.290;2024-02-14T12:19:08;5.90;;;2.30;;
84246;SDS011;74385;53.360;6.290;2024-02-14T12:21:39;6.40;;;2.30;;
84246;SDS011;74385;53.360;6.290;2024-02-14T12:24:06;4.30;;;3.00;;
84246;SDS011;74385;53.360;6.290;2024-02-14T12:26:33;4.07;;;1.70;;
84246;SDS011;74385;53.360;6.290;2024-02-14T12:29:05;8.60;;;2.60;;
84246;SDS011;74385;53.360;6.290;2024-02-14T12:31:35;7.78;;;2.65;;
84246;SDS011;74385;53.360;6.290;2024-02-14T12:34:02;5.13;;;1.88;;
84246;SDS011;74385;53.360;6.290;2024-02-14T12:36:30;2.80;;;2.10;;
84246;SDS011;74385;53.360;6.290;2024-02-14T12:38:56;2.15;;;1.95;;
84246;SDS011;74385;53.360;6.290;2024-02-14T12:41:22;4.18;;;2.85;;
84246;SDS011;74385;53.360;6.290;2024-02-14T12:44:06;2.33;;;1.70;;
84246;SDS011;74385;53.360;6.290;2024-02-14T12:46:32;3.13;;;2.83;;
84246;SDS011;74385;53.360;6.290;2024-02-14T12:48:58;4.30;;;2.75;;
84246;SDS011;74385;53.360;6.290;2024-02-14T12:51:25;6.90;;;3.35;;
84246;SDS011;74385;53.360;6.290;2024-02-14T12:53:54;3.38;;;3.00;;
84246;SDS011;74385;53.360;6.290;2024-02-14T12:56:20;3.88;;;2.63;;
84246;SDS011;74385;53.360;6.290;2024-02-14T12:58:46;4.90;;;3.30;;
84246;SDS011;74385;53.360;6.290;2024-02-14T13:01:13;3.15;;;2.25;;
84246;SDS011;74385;53.360;6.290;2024-02-14T13:03:40;3.65;;;2.58;;
84246;SDS011;74385;53.360;6.290;2024-02-14T13:06:06;3.92;;;2.53;;
84246;SDS011;74385;53.360;6.290;2024-02-14T13:08:32;4.40;;;2.65;;
84246;SDS011;74385;53.360;6.290;2024-02-14T13:10:58;6.20;;;3.33;;
84246;SDS011;74385;53.360;6.290;2024-02-14T13:13:24;3.65;;;2.92;;
84246;SDS011;74385;53.360;6.290;2024-02-14T13:15:50;4.05;;;2.00;;
84246;SDS011;74385;53.360;6.290;2024-02-14T13:18:20;3.50;;;2.42;;
84246;SDS011;74385;53.360;6.290;2024-02-14T13:20:46;4.75;;;2.35;;
84246;SDS011;74385;53.360;6.290;2024-02-14T13:23:13;6.47;;;2.50;;
84246;SDS011;74385;53.360;6.290;2024-02-14T13:25:40;5.10;;;3.08;;
84246;SDS011;74385;53.360;6.290;2024-02-14T13:28:06;9.02;;;3.25;;
84246;SDS011;74385;53.360;6.290;2024-02-14T13:30:32;6.18;;;3.85;;
84246;SDS011;74385;53.360;6.290;2024-02-14T13:32:58;4.15;;;2.80;;
84246;SDS011;74385;53.360;6.290;2024-02-14T13:35:26;7.90;;;3.75;;
84246;SDS011;74385;53.360;6.290;2024-02-14T13:37:52;6.28;;;3.65;;
84246;SDS011;74385;53.360;6.290;2024-02-14T13:40:18;5.05;;;3.65;;
84246;SDS011;74385;53.360;6.290;2024-02-14T13:42:45;6.28;;;3.05;;
84246;SDS011;74385;53.360;6.290;2024-02-14T13:45:12;4.80;;;3.13;;
84246;SDS011;74385;53.360;6.290;2024-02-14T13:47:38;13.70;;;4.68;;
84246;SDS011;74385;53.360;6.290;2024-02-14T13:50:09;8.15;;;4.53;;
84246;SDS011;74385;53.360;6.290;2024-02-14T13:52:35;6.70;;;3.63;;
84246;SDS011;74385;53.360;6.290;2024-02-14T13:55:02;11.02;;;4.47;;
84246;SDS011;74385;53.360;6.290;2024-02-14T13:57:33;10.00;;;5.38;;
84246;SDS011;74385;53.360;6.290;2024-02-14T13:59:59;14.70;;;5.90;;
84246;SDS011;74385;53.360;6.290;2024-02-14T14:02:26;9.50;;;4.72;;
84246;SDS011;74385;53.360;6.290;2024-02-14T14:04:52;8.25;;;4.72;;
84246;SDS011;74385;53.360;6.290;2024-02-14T14:07:20;5.53;;;4.55;;
84246;SDS011;74385;53.360;6.290;2024-02-14T14:09:48;9.18;;;6.45;;
84246;SDS011;74385;53.360;6.290;2024-02-14T14:12:15;13.82;;;6.72;;
84246;SDS011;74385;53.360;6.290;2024-02-14T14:14:41;8.55;;;5.40;;
84246;SDS011;74385;53.360;6.290;2024-02-14T14:17:08;11.00;;;5.20;;
84246;SDS011;74385;53.360;6.290;2024-02-14T14:19:35;9.70;;;5.45;;
84246;SDS011;74385;53.360;6.290;2024-02-14T14:22:02;10.75;;;6.97;;
84246;SDS011;74385;53.360;6.290;2024-02-14T14:24:28;9.60;;;4.43;;
84246;SDS011;74385;53.360;6.290;2024-02-14T14:26:56;10.25;;;5.75;;
84246;SDS011;74385;53.360;6.290;2024-02-14T14:29:23;8.10;;;4.10;;
84246;SDS011;74385;53.360;6.290;2024-02-14T14:31:50;8.82;;;4.63;;
84246;SDS011;74385;53.360;6.290;2024-02-14T14:34:16;5.25;;;3.00;;
84246;SDS011;74385;53.360;6.290;2024-02-14T14:36:42;6.00;;;3.70;;
84246;SDS011;74385;53.360;6.290;2024-02-14T14:39:09;5.55;;;2.35;;
84246;SDS011;74385;53.360;6.290;2024-02-14T14:41:37;5.07;;;2.75;;